createdAt,value
2022-09-05T00:03:46.166Z,24.27
2022-09-05T00:10:05.789Z,27.63
2022-09-05T00:16:47.180Z,23.90
2022-09-05T00:24:35.364Z,25.92
2022-09-05T00:30:09.897Z,24.63
2022-09-05T00:36:32.427Z,22.85
2022-09-05T00:42:34.889Z,32.45
2022-09-05T00:55:01.882Z,31.95
2022-09-05T01:01:21.469Z,26.98
2022-09-05T01:07:26.765Z,24.45
2022-09-05T01:13:48.093Z,26.17
2022-09-05T01:20:19.510Z,24.60
2022-09-05T01:26:56.787Z,22.13
2022-09-05T01:33:06.533Z,20.15
2022-09-05T01:40:12.499Z,32.20
2022-09-05T01:46:01.122Z,20.77
2022-09-05T01:52:29.114Z,31.15
2022-09-05T01:59:04.055Z,28.52
2022-09-05T02:05:13.199Z,26.23
2022-09-05T02:11:35.635Z,20.35
2022-09-05T02:17:50.897Z,25.15
2022-09-05T02:24:04.607Z,18.38
2022-09-05T02:30:18.153Z,23.17
2022-09-05T02:36:23.311Z,27.88
2022-09-05T02:45:07.733Z,25.95
2022-09-05T02:57:38.986Z,23.25
2022-09-05T03:03:02.197Z,25.42
2022-09-05T03:09:17.153Z,24.73
2022-09-05T03:15:29.136Z,27.52
2022-09-05T03:22:08.608Z,21.83
2022-09-05T03:28:48.483Z,20.55
2022-09-05T03:35:28.038Z,22.38
2022-09-05T03:42:14.446Z,22.60
2022-09-05T03:48:28.397Z,21.55
2022-09-05T03:57:14.941Z,22.70
2022-09-05T04:04:22.718Z,20.38
2022-09-05T04:08:34.337Z,21.30
2022-09-05T04:14:51.244Z,24.90
2022-09-05T04:21:23.350Z,25.08
2022-09-05T04:27:32.115Z,26.77
2022-09-05T04:33:55.856Z,20.30
2022-09-05T04:40:18.103Z,22.30
2022-09-05T04:46:23.340Z,15.15
2022-09-05T04:52:55.135Z,18.35
2022-09-05T05:02:41.887Z,23.25
2022-09-05T05:06:08.723Z,16.38
2022-09-05T05:18:02.895Z,10.03
2022-09-05T05:19:21.253Z,11.52
2022-09-05T05:25:24.440Z,13.80
2022-09-05T05:31:32.285Z,11.98
2022-09-05T05:37:50.060Z,30.55
2022-09-05T05:43:52.618Z,10.07
2022-09-05T05:49:59.777Z,13.05
2022-09-05T05:56:05.168Z,9.85
2022-09-05T06:02:43.375Z,9.38
2022-09-05T06:11:20.438Z,6.35
2022-09-05T06:15:27.327Z,16.02
2022-09-05T06:22:10.216Z,13.93
2022-09-05T06:28:18.879Z,8.13
2022-09-05T06:35:00.100Z,8.95
2022-09-05T06:41:39.208Z,10.93
2022-09-05T06:47:44.657Z,6.28
2022-09-05T06:54:05.980Z,9.30
2022-09-05T07:00:17.499Z,8.43
2022-09-05T07:06:49.422Z,11.23
2022-09-05T07:19:12.658Z,20.83
2022-09-05T07:25:19.030Z,6.50
2022-09-05T07:31:27.413Z,7.60
2022-09-05T07:37:43.480Z,4.82
2022-09-05T07:43:48.279Z,7.68
2022-09-05T07:50:27.950Z,6.78
2022-09-05T07:56:59.012Z,5.75
2022-09-05T08:02:46.951Z,4.53
2022-09-05T08:09:21.580Z,3.42
2022-09-05T08:15:51.031Z,4.60
2022-09-05T08:21:53.108Z,3.00
2022-09-05T08:27:56.085Z,7.60
2022-09-05T08:34:03.754Z,5.35
2022-09-05T08:40:30.483Z,5.30
2022-09-05T08:46:56.724Z,12.80
2022-09-05T08:52:59.536Z,27.52
2022-09-05T08:59:31.509Z,5.60
2022-09-05T09:06:14.197Z,19.50
2022-09-05T09:12:17.784Z,17.38
2022-09-05T09:18:21.655Z,4.68
2022-09-05T09:24:45.089Z,18.02
2022-09-05T09:31:18.268Z,6.30
2022-09-05T09:37:53.410Z,6.93
2022-09-05T09:44:16.307Z,4.95
2022-09-05T09:50:52.038Z,6.57
2022-09-05T09:57:10.046Z,10.73
2022-09-05T10:10:02.991Z,5.97
2022-09-05T10:11:09.670Z,5.57
2022-09-05T10:17:23.405Z,13.57
2022-09-05T10:23:49.598Z,5.53
2022-09-05T10:30:09.349Z,6.85
2022-09-05T10:36:25.146Z,9.52
2022-09-05T10:42:43.473Z,5.53
2022-09-05T10:49:10.277Z,4.28
2022-09-05T10:55:22.457Z,6.90
2022-09-05T11:02:29.253Z,4.85
2022-09-05T11:08:42.845Z,8.63
2022-09-05T11:14:53.785Z,8.93
2022-09-05T11:21:17.794Z,4.40
2022-09-05T11:27:32.961Z,6.05
2022-09-05T11:39:47.194Z,7.93
2022-09-05T11:40:58.067Z,6.57
2022-09-05T11:47:27.210Z,5.18
2022-09-05T12:06:57.148Z,11.60
2022-09-05T12:13:29.321Z,4.82
2022-09-05T12:19:43.512Z,7.72
2022-09-05T12:27:40.234Z,16.10
2022-09-05T12:35:22.483Z,6.05
2022-09-05T12:40:54.319Z,3.38
2022-09-05T12:46:03.434Z,4.03
2022-09-05T12:52:34.107Z,12.02
2022-09-05T13:03:02.598Z,4.25
2022-09-05T13:05:17.901Z,4.85
2022-09-05T13:14:49.267Z,4.65
2022-09-05T13:18:03.084Z,23.08
2022-09-05T13:24:12.488Z,8.68
2022-09-05T13:31:40.655Z,8.00
2022-09-05T13:38:11.969Z,3.45
2022-09-05T13:43:39.347Z,4.82
2022-09-05T13:50:05.166Z,6.15
2022-09-05T13:56:24.451Z,5.35
2022-09-05T14:10:03.421Z,8.30
2022-09-05T14:16:13.832Z,3.97
2022-09-05T14:22:52.583Z,7.68
2022-09-05T14:29:18.592Z,10.52
2022-09-05T14:37:49.876Z,11.73
2022-09-05T14:42:21.583Z,8.88
2022-09-05T14:49:01.631Z,4.45
2022-09-05T14:55:19.876Z,6.30
2022-09-05T15:02:56.672Z,4.55
2022-09-05T15:08:42.561Z,3.53
2022-09-05T15:14:32.025Z,11.00
2022-09-05T15:20:36.859Z,8.40
2022-09-05T15:26:53.058Z,6.75
2022-09-05T15:33:25.628Z,5.30
2022-09-05T15:39:33.612Z,8.43
2022-09-05T15:45:37.714Z,12.15
2022-09-05T15:51:44.294Z,7.28
2022-09-05T15:57:57.290Z,4.25
2022-09-05T16:06:20.004Z,11.18
2022-09-05T16:10:42.216Z,6.35
2022-09-05T16:23:11.856Z,4.18
2022-09-05T16:23:40.754Z,6.35
2022-09-05T16:29:46.670Z,8.50
2022-09-05T16:36:15.482Z,10.27
2022-09-05T16:42:47.377Z,8.02
2022-09-05T16:49:11.651Z,5.97
2022-09-05T16:55:31.974Z,17.90
2022-09-05T17:02:05.585Z,10.88
2022-09-05T17:08:35.850Z,14.18
2022-09-05T17:14:44.603Z,8.60
2022-09-05T17:20:51.325Z,5.72
2022-09-05T17:29:38.423Z,10.32
2022-09-05T17:33:20.851Z,7.57
2022-09-05T17:39:44.347Z,6.05
2022-09-05T17:45:53.966Z,5.70
2022-09-05T17:51:56.213Z,6.63
2022-09-05T18:04:47.393Z,6.90
2022-09-05T18:11:14.099Z,6.18
2022-09-05T18:17:36.123Z,6.38
2022-09-05T18:23:54.103Z,8.88
2022-09-05T18:30:10.834Z,21.13
2022-09-05T18:36:18.866Z,12.57
2022-09-05T18:42:34.245Z,6.97
2022-09-05T18:48:44.189Z,17.63
2022-09-05T18:56:11.460Z,9.43
2022-09-05T19:01:53.923Z,7.57
2022-09-05T19:07:59.334Z,15.60
2022-09-05T19:14:37.742Z,7.57
2022-09-05T19:21:19.272Z,13.52
2022-09-05T19:30:58.731Z,7.95
2022-09-05T19:36:52.371Z,34.35
2022-09-05T19:46:26.179Z,7.97
2022-09-05T19:47:45.334Z,10.65
2022-09-05T19:53:07.373Z,7.63
2022-09-05T19:59:34.011Z,9.63
2022-09-05T20:05:41.785Z,11.20
2022-09-05T20:11:52.997Z,7.60
2022-09-05T20:17:59.240Z,9.50
2022-09-05T20:24:14.330Z,20.60
2022-09-05T20:30:20.039Z,11.43
2022-09-05T20:43:17.155Z,8.55
2022-09-05T20:43:28.333Z,13.25
2022-09-05T20:54:22.373Z,10.18
2022-09-05T20:55:49.643Z,7.45
2022-09-05T21:02:00.212Z,12.50
2022-09-05T21:08:17.384Z,10.73
2022-09-05T21:14:21.481Z,8.20
2022-09-05T21:20:25.014Z,8.20
2022-09-05T21:26:29.813Z,19.13
2022-09-05T21:32:41.253Z,9.38
2022-09-05T21:38:44.487Z,11.53
2022-09-05T21:47:41.328Z,18.77
2022-09-05T21:51:13.657Z,9.98
2022-09-05T21:59:33.444Z,12.18
2022-09-05T22:03:42.305Z,12.95
2022-09-05T22:09:45.086Z,16.63
2022-09-05T22:15:48.799Z,13.23
2022-09-05T22:21:53.817Z,11.13
2022-09-05T22:28:12.980Z,15.75
2022-09-05T22:34:15.379Z,16.05
2022-09-05T22:40:18.104Z,9.32
2022-09-05T22:46:20.521Z,8.73
2022-09-05T22:52:22.626Z,9.52
2022-09-05T22:58:25.111Z,10.13
2022-09-05T23:04:27.288Z,11.05
2022-09-05T23:10:30.549Z,11.82
2022-09-05T23:16:32.689Z,14.57
2022-09-05T23:22:38.566Z,12.57
2022-09-05T23:28:43.423Z,14.07
2022-09-05T23:34:46.167Z,9.82
2022-09-05T23:46:50.723Z,11.45
2022-09-05T23:58:55.026Z,13.25
